createdAt,value
2022-10-24T00:03:11.417Z,14.47
2022-10-24T00:05:48.377Z,14.65
2022-10-24T00:08:21.570Z,16.48
2022-10-24T00:11:00.415Z,12.70
2022-10-24T00:13:37.889Z,14.00
2022-10-24T00:18:57.348Z,16.37
2022-10-24T00:21:34.250Z,12.55
2022-10-24T00:24:11.090Z,19.40
2022-10-24T00:26:50.383Z,14.35
2022-10-24T00:29:25.040Z,13.30
2022-10-24T00:32:00.345Z,12.90
2022-10-24T00:34:33.457Z,16.05
2022-10-24T00:37:09.331Z,13.18
2022-10-24T00:39:42.365Z,12.82
2022-10-24T00:42:15.555Z,14.10
2022-10-24T00:44:51.126Z,13.50
2022-10-24T00:47:27.090Z,16.52
2022-10-24T00:50:03.205Z,14.87
2022-10-24T00:52:47.794Z,14.68
2022-10-24T00:55:22.881Z,12.47
2022-10-24T00:58:05.483Z,17.60
2022-10-24T01:00:42.130Z,17.12
2022-10-24T01:03:15.755Z,14.10
2022-10-24T01:05:57.898Z,14.85
2022-10-24T01:08:34.358Z,16.65
2022-10-24T01:11:12.341Z,14.78
2022-10-24T01:16:38.013Z,13.35
2022-10-24T01:19:19.615Z,11.75
2022-10-24T01:22:05.598Z,17.07
2022-10-24T01:24:51.824Z,18.20
2022-10-24T01:27:44.521Z,14.78
2022-10-24T01:30:21.999Z,15.58
2022-10-24T01:33:01.455Z,16.32
2022-10-24T01:35:41.205Z,15.60
2022-10-24T01:38:18.508Z,14.30
2022-10-24T01:40:58.461Z,17.90
2022-10-24T01:43:37.485Z,14.83
2022-10-24T01:46:13.789Z,16.85
2022-10-24T01:49:07.333Z,17.67
2022-10-24T01:51:44.697Z,15.60
2022-10-24T01:54:18.465Z,16.85
2022-10-24T01:56:58.255Z,14.00
2022-10-24T01:59:46.744Z,18.05
2022-10-24T02:02:26.663Z,13.10
2022-10-24T02:05:05.711Z,19.35
2022-10-24T02:07:46.406Z,18.92
2022-10-24T02:10:29.926Z,13.13
2022-10-24T02:15:49.726Z,18.57
2022-10-24T02:18:26.723Z,18.50
2022-10-24T02:21:03.012Z,17.48
2022-10-24T02:23:43.634Z,24.72
2022-10-24T02:26:19.800Z,22.82
2022-10-24T02:28:59.049Z,17.12
2022-10-24T02:31:35.811Z,19.40
2022-10-24T02:36:48.362Z,19.50
2022-10-24T02:39:23.504Z,21.40
2022-10-24T02:42:01.930Z,22.85
2022-10-24T02:44:47.327Z,18.82
2022-10-24T02:47:23.057Z,22.30
2022-10-24T02:49:56.959Z,22.77
2022-10-24T02:52:31.123Z,20.17
2022-10-24T02:55:07.928Z,26.62
2022-10-24T02:57:41.265Z,17.98
2022-10-24T03:03:23.390Z,19.05
2022-10-24T03:05:56.464Z,20.88
2022-10-24T03:08:30.944Z,22.55
2022-10-24T03:11:08.951Z,16.85
2022-10-24T03:13:42.143Z,15.32
2022-10-24T03:16:15.378Z,16.12
2022-10-24T03:18:51.159Z,17.27
2022-10-24T03:21:25.497Z,22.07
2022-10-24T03:24:01.077Z,17.42
2022-10-24T03:26:40.031Z,22.40
2022-10-24T03:29:14.208Z,15.45
2022-10-24T03:32:00.546Z,14.93
2022-10-24T03:34:35.465Z,15.45
2022-10-24T03:37:11.523Z,14.70
2022-10-24T03:39:46.317Z,19.50
2022-10-24T03:42:22.490Z,14.07
2022-10-24T03:44:57.005Z,17.37
2022-10-24T03:47:39.252Z,14.15
2022-10-24T03:50:13.204Z,12.95
2022-10-24T03:52:50.220Z,14.03
2022-10-24T03:55:27.417Z,10.32
2022-10-24T03:58:00.814Z,12.95
2022-10-24T04:00:40.810Z,10.48
2022-10-24T04:03:16.710Z,10.98
2022-10-24T04:05:49.953Z,12.73
2022-10-24T04:08:27.013Z,19.12
2022-10-24T04:11:00.144Z,13.20
2022-10-24T04:13:34.904Z,12.93
2022-10-24T04:16:14.354Z,13.15
2022-10-24T04:18:55.845Z,11.55
2022-10-24T04:21:32.483Z,11.18
2022-10-24T04:24:08.980Z,11.33
2022-10-24T04:26:46.763Z,9.43
2022-10-24T04:29:21.274Z,11.30
2022-10-24T04:31:54.451Z,9.95
2022-10-24T04:34:33.048Z,10.03
2022-10-24T04:37:09.717Z,7.53
2022-10-24T04:39:47.696Z,11.57
2022-10-24T04:42:26.141Z,9.90
2022-10-24T04:45:03.828Z,9.13
2022-10-24T04:47:38.048Z,7.05
2022-10-24T04:50:15.168Z,8.23
2022-10-24T04:52:52.910Z,7.20
2022-10-24T04:55:28.780Z,8.48
2022-10-24T04:58:26.393Z,7.75
2022-10-24T05:01:03.273Z,7.33
2022-10-24T05:03:44.124Z,9.45
2022-10-24T05:06:19.379Z,10.60
2022-10-24T05:08:59.315Z,8.88
2022-10-24T05:11:35.660Z,10.63
2022-10-24T05:14:14.542Z,13.10
2022-10-24T05:16:53.125Z,9.48
2022-10-24T05:19:31.929Z,9.30
2022-10-24T05:22:10.735Z,11.48
2022-10-24T05:24:46.894Z,10.88
2022-10-24T05:27:24.431Z,9.05
2022-10-24T05:30:01.167Z,9.08
2022-10-24T05:32:38.747Z,9.65
2022-10-24T05:35:13.915Z,11.70
2022-10-24T05:38:05.990Z,11.30
2022-10-24T05:40:40.990Z,12.58
2022-10-24T05:43:14.446Z,8.95
2022-10-24T05:45:54.203Z,11.12
2022-10-24T05:48:28.296Z,13.22
2022-10-24T05:51:03.200Z,12.63
2022-10-24T05:53:37.992Z,15.85
2022-10-24T05:56:14.805Z,15.75
2022-10-24T06:01:37.212Z,12.03
2022-10-24T06:04:18.773Z,10.43
2022-10-24T06:06:57.510Z,9.05
2022-10-24T06:09:37.437Z,11.55
2022-10-24T06:12:12.919Z,8.63
2022-10-24T06:14:48.033Z,10.63
2022-10-24T06:17:25.850Z,11.53
2022-10-24T06:19:58.990Z,6.45
2022-10-24T06:22:34.165Z,10.28
2022-10-24T06:25:08.142Z,10.03
2022-10-24T06:27:43.685Z,13.80
2022-10-24T06:30:19.808Z,11.85
2022-10-24T06:32:54.446Z,9.33
2022-10-24T06:35:31.633Z,9.85
2022-10-24T06:38:04.692Z,9.15
2022-10-24T06:40:49.849Z,10.50
2022-10-24T06:43:23.282Z,8.98
2022-10-24T06:45:58.946Z,8.45
2022-10-24T06:48:32.058Z,9.98
2022-10-24T06:51:08.514Z,9.05
2022-10-24T06:53:45.014Z,7.35
2022-10-24T06:56:19.808Z,10.60
2022-10-24T06:58:55.954Z,11.00
2022-10-24T07:01:32.887Z,10.68
2022-10-24T07:04:08.359Z,9.13
2022-10-24T07:06:44.715Z,9.88
2022-10-24T07:09:21.046Z,10.32
2022-10-24T07:11:54.240Z,7.35
2022-10-24T07:14:29.905Z,7.03
2022-10-24T07:19:55.750Z,6.95
2022-10-24T07:22:31.366Z,9.63
2022-10-24T07:25:05.439Z,6.40
2022-10-24T07:27:46.121Z,8.80
2022-10-24T07:30:23.512Z,5.97
2022-10-24T07:32:58.223Z,8.78
2022-10-24T07:35:49.011Z,9.00
2022-10-24T07:38:26.367Z,6.53
2022-10-24T07:41:00.437Z,6.70
2022-10-24T07:43:33.932Z,7.60
2022-10-24T07:46:09.864Z,8.15
2022-10-24T07:48:53.076Z,8.28
2022-10-24T07:51:31.790Z,5.90
2022-10-24T07:54:06.269Z,4.55
2022-10-24T07:56:39.414Z,5.25
2022-10-24T07:59:29.848Z,3.58
2022-10-24T08:01:47.901Z,4.55
2022-10-24T08:04:21.028Z,7.05
2022-10-24T08:06:54.239Z,6.75
2022-10-24T08:09:28.711Z,6.08
2022-10-24T08:12:01.871Z,6.65
2022-10-24T08:14:34.982Z,7.22
2022-10-24T08:17:08.764Z,5.05
2022-10-24T08:19:44.021Z,5.92
2022-10-24T08:22:17.738Z,7.83
2022-10-24T08:24:50.793Z,4.87
2022-10-24T08:27:23.977Z,4.95
2022-10-24T08:29:57.123Z,4.70
2022-10-24T08:32:30.423Z,4.75
2022-10-24T08:35:03.961Z,4.67
2022-10-24T08:37:38.694Z,5.70
2022-10-24T08:40:16.749Z,5.25
2022-10-24T08:42:50.913Z,8.55
2022-10-24T08:48:12.074Z,4.40
2022-10-24T08:50:48.056Z,4.92
2022-10-24T08:53:31.199Z,4.75
2022-10-24T08:56:06.598Z,5.40
2022-10-24T08:58:43.563Z,4.85
2022-10-24T09:04:02.941Z,4.00
2022-10-24T09:06:36.641Z,3.62
2022-10-24T09:09:14.610Z,4.58
2022-10-24T09:11:51.687Z,3.27
2022-10-24T09:14:27.192Z,3.97
2022-10-24T09:17:03.495Z,4.85
2022-10-24T09:19:37.286Z,3.08
2022-10-24T09:22:13.044Z,3.08
2022-10-24T09:24:49.852Z,2.95
2022-10-24T09:27:26.061Z,2.65
2022-10-24T09:30:00.345Z,4.85
2022-10-24T09:32:37.620Z,1.70
2022-10-24T09:35:15.108Z,3.15
2022-10-24T09:37:50.604Z,3.20
2022-10-24T09:40:26.414Z,4.45
2022-10-24T09:43:02.898Z,3.02
2022-10-24T09:45:41.060Z,2.42
2022-10-24T09:48:29.161Z,2.55
2022-10-24T09:51:00.737Z,2.42
2022-10-24T09:53:36.550Z,2.50
2022-10-24T09:56:13.827Z,3.02
2022-10-24T09:58:46.969Z,3.30
2022-10-24T10:01:23.948Z,4.62
2022-10-24T10:04:09.389Z,2.35
2022-10-24T10:06:44.789Z,2.00
2022-10-24T10:09:22.260Z,4.15
2022-10-24T10:12:03.518Z,1.90
2022-10-24T10:14:36.456Z,2.77
2022-10-24T10:17:12.837Z,2.77
2022-10-24T10:19:49.141Z,3.25
2022-10-24T10:22:29.669Z,1.55
2022-10-24T10:25:03.801Z,3.52
2022-10-24T10:27:39.345Z,4.10
2022-10-24T10:30:23.031Z,4.33
2022-10-24T10:33:13.954Z,2.67
2022-10-24T10:35:52.006Z,2.60
2022-10-24T10:38:38.347Z,2.08
2022-10-24T10:41:16.173Z,2.37
2022-10-24T10:43:55.713Z,3.30
2022-10-24T10:46:32.051Z,2.95
2022-10-24T10:49:10.844Z,1.05
2022-10-24T10:51:47.684Z,0.82
2022-10-24T10:54:29.793Z,3.17
2022-10-24T10:57:07.022Z,2.10
2022-10-24T10:59:56.693Z,2.60
2022-10-24T11:03:06.542Z,1.57
2022-10-24T11:08:35.157Z,3.12
2022-10-24T11:11:12.470Z,1.85
2022-10-24T11:13:49.693Z,2.50
2022-10-24T11:16:26.011Z,2.17
2022-10-24T11:19:03.764Z,2.22
2022-10-24T11:21:39.704Z,1.92
2022-10-24T11:24:16.827Z,1.32
2022-10-24T11:26:52.981Z,1.30
2022-10-24T11:29:31.240Z,1.45
2022-10-24T11:32:07.778Z,4.00
2022-10-24T11:34:44.701Z,2.20
2022-10-24T11:37:21.405Z,0.72
2022-10-24T11:39:58.530Z,1.40
2022-10-24T11:45:12.673Z,1.20
2022-10-24T11:48:10.154Z,1.30
2022-10-24T11:50:49.674Z,2.95
2022-10-24T11:53:48.122Z,1.62
2022-10-24T11:56:27.169Z,1.25
2022-10-24T11:59:04.165Z,1.15
2022-10-24T12:02:02.096Z,3.22
2022-10-24T12:04:58.115Z,2.70
2022-10-24T12:08:05.871Z,2.95
2022-10-24T12:10:51.173Z,4.20
2022-10-24T12:16:43.261Z,3.05
2022-10-24T12:19:19.939Z,8.35
2022-10-24T12:21:56.480Z,2.60
2022-10-24T12:24:34.623Z,1.35
2022-10-24T12:27:13.170Z,3.47
2022-10-24T12:29:46.507Z,1.90
2022-10-24T12:32:28.658Z,1.27
2022-10-24T12:35:28.949Z,1.20
2022-10-24T12:37:40.272Z,2.00
2022-10-24T12:40:48.396Z,3.80
2022-10-24T12:43:34.012Z,3.25
2022-10-24T12:46:43.222Z,1.37
2022-10-24T12:49:37.129Z,3.85
2022-10-24T12:52:44.635Z,1.00
2022-10-24T12:55:50.058Z,1.42
2022-10-24T12:58:26.853Z,1.80
2022-10-24T13:01:02.892Z,2.13
2022-10-24T13:04:21.006Z,1.72
2022-10-24T13:07:21.171Z,1.70
2022-10-24T13:12:51.133Z,1.75
2022-10-24T13:15:31.399Z,1.75
2022-10-24T13:18:17.825Z,1.67
2022-10-24T13:20:55.232Z,0.80
2022-10-24T13:23:30.614Z,1.37
2022-10-24T13:26:05.702Z,1.80
2022-10-24T13:28:43.567Z,2.75
2022-10-24T13:34:34.299Z,2.42
2022-10-24T13:37:16.859Z,1.82
2022-10-24T13:39:53.468Z,1.80
2022-10-24T13:42:36.306Z,2.10
2022-10-24T13:45:18.813Z,2.33
2022-10-24T13:47:55.218Z,1.82
2022-10-24T13:50:31.748Z,4.35
2022-10-24T13:53:08.834Z,2.75
2022-10-24T13:55:48.189Z,2.85
2022-10-24T13:58:24.065Z,2.92
2022-10-24T14:01:00.262Z,1.60
2022-10-24T14:03:37.552Z,3.55
2022-10-24T14:06:11.330Z,3.17
2022-10-24T14:08:59.698Z,4.72
2022-10-24T14:14:09.239Z,3.10
2022-10-24T14:16:42.077Z,4.53
2022-10-24T14:19:27.116Z,4.62
2022-10-24T14:21:57.174Z,4.78
2022-10-24T14:24:32.739Z,5.35
2022-10-24T14:27:06.744Z,4.33
2022-10-24T14:29:41.929Z,2.77
2022-10-24T14:32:17.903Z,5.00
2022-10-24T14:34:54.509Z,5.00
2022-10-24T14:37:36.723Z,9.83
2022-10-24T14:40:18.493Z,5.20
2022-10-24T14:42:52.169Z,4.08
2022-10-24T14:45:27.696Z,5.12
2022-10-24T14:48:03.597Z,4.05
2022-10-24T14:50:41.184Z,3.15
2022-10-24T14:53:26.966Z,4.20
2022-10-24T14:56:03.456Z,3.42
2022-10-24T14:58:39.320Z,8.20
2022-10-24T15:01:21.122Z,4.67
2022-10-24T15:03:55.829Z,3.92
2022-10-24T15:06:30.633Z,5.75
2022-10-24T15:09:07.106Z,6.75
2022-10-24T15:11:43.276Z,4.87
2022-10-24T15:14:36.681Z,5.53
2022-10-24T15:20:05.387Z,4.40
2022-10-24T15:22:43.535Z,3.33
2022-10-24T15:25:23.721Z,4.42
2022-10-24T15:27:58.617Z,3.67
2022-10-24T15:30:34.131Z,3.37
2022-10-24T15:33:09.556Z,3.83
2022-10-24T15:35:43.960Z,8.33
2022-10-24T15:38:18.939Z,5.55
2022-10-24T15:40:52.827Z,6.55
2022-10-24T15:43:26.219Z,7.72
2022-10-24T15:45:59.331Z,3.00
2022-10-24T15:48:32.549Z,7.37
2022-10-24T15:51:08.277Z,5.72
2022-10-24T15:53:42.082Z,4.25
2022-10-24T15:56:15.771Z,5.62
2022-10-24T16:01:28.981Z,6.40
2022-10-24T16:04:03.379Z,6.33
2022-10-24T16:06:36.552Z,3.80
2022-10-24T16:09:15.312Z,5.35
2022-10-24T16:11:48.919Z,4.28
2022-10-24T16:14:25.954Z,5.55
2022-10-24T16:16:59.309Z,4.45
2022-10-24T16:19:32.382Z,6.10
2022-10-24T16:22:07.285Z,9.45
2022-10-24T16:24:40.529Z,7.92
2022-10-24T16:27:17.953Z,8.18
2022-10-24T16:29:55.012Z,8.78
2022-10-24T16:32:28.994Z,5.65
2022-10-24T16:35:02.916Z,7.42
2022-10-24T16:37:36.512Z,8.78
2022-10-24T16:40:22.937Z,8.38
2022-10-24T16:42:58.374Z,6.83
2022-10-24T16:45:41.582Z,10.78
2022-10-24T16:48:16.501Z,8.80
2022-10-24T16:50:54.984Z,5.28
2022-10-24T16:53:29.658Z,7.75
2022-10-24T16:56:05.166Z,10.78
2022-10-24T16:58:41.622Z,7.85
2022-10-24T17:01:16.948Z,10.72
2022-10-24T17:03:52.806Z,13.58
2022-10-24T17:06:34.624Z,8.88
2022-10-24T17:09:07.959Z,8.85
2022-10-24T17:11:46.477Z,8.08
2022-10-24T17:14:17.442Z,12.55
2022-10-24T17:16:50.623Z,10.88
2022-10-24T17:19:23.728Z,7.25
2022-10-24T17:21:59.030Z,9.15
2022-10-24T17:24:33.736Z,10.65
2022-10-24T17:27:09.522Z,6.92
2022-10-24T17:29:45.069Z,7.65
2022-10-24T17:32:18.965Z,9.00
2022-10-24T17:34:53.876Z,8.15
2022-10-24T17:37:30.966Z,8.55
2022-10-24T17:40:07.365Z,10.17
2022-10-24T17:42:41.555Z,9.65
2022-10-24T17:45:18.378Z,9.68
2022-10-24T17:47:53.777Z,7.83
2022-10-24T17:50:26.956Z,7.65
2022-10-24T17:53:00.271Z,7.78
2022-10-24T17:55:45.552Z,7.10
2022-10-24T17:58:08.994Z,9.40
2022-10-24T18:00:42.288Z,7.72
2022-10-24T18:03:16.253Z,8.83
2022-10-24T18:05:49.396Z,9.48
2022-10-24T18:08:22.547Z,11.70
2022-10-24T18:10:55.832Z,6.42
2022-10-24T18:13:28.965Z,9.63
2022-10-24T18:16:03.648Z,8.78
2022-10-24T18:18:39.502Z,9.18
2022-10-24T18:21:15.952Z,7.30
2022-10-24T18:23:49.501Z,8.33
2022-10-24T18:26:27.513Z,11.22
2022-10-24T18:29:00.922Z,8.90
2022-10-24T18:31:35.010Z,9.60
2022-10-24T18:34:08.926Z,8.80
2022-10-24T18:36:42.343Z,8.50
2022-10-24T18:39:15.574Z,7.37
2022-10-24T18:41:52.337Z,9.68
2022-10-24T18:44:29.925Z,8.33
2022-10-24T18:47:06.974Z,8.28
2022-10-24T18:49:41.774Z,8.80
2022-10-24T18:52:20.322Z,10.00
2022-10-24T18:54:59.540Z,8.33
2022-10-24T18:57:37.498Z,8.33
2022-10-24T19:00:16.775Z,10.75
2022-10-24T19:02:57.621Z,8.25
2022-10-24T19:08:33.434Z,10.05
2022-10-24T19:11:13.190Z,6.45
2022-10-24T19:16:39.860Z,8.80
2022-10-24T19:19:22.806Z,7.20
2022-10-24T19:22:04.480Z,7.22
2022-10-24T19:24:38.388Z,7.92
2022-10-24T19:27:12.010Z,9.13
2022-10-24T19:29:46.905Z,5.55
2022-10-24T19:32:20.209Z,7.42
2022-10-24T19:35:00.822Z,5.97
2022-10-24T19:37:35.197Z,7.67
2022-10-24T19:40:13.179Z,7.28
2022-10-24T19:42:48.959Z,6.10
2022-10-24T19:45:25.090Z,12.15
2022-10-24T19:48:03.457Z,9.38
2022-10-24T19:50:37.504Z,12.50
2022-10-24T19:56:12.570Z,7.05
2022-10-24T19:58:49.085Z,8.28
2022-10-24T20:01:25.940Z,9.98
2022-10-24T20:04:02.244Z,13.20
2022-10-24T20:06:36.519Z,7.20
2022-10-24T20:09:10.329Z,8.60
2022-10-24T20:11:43.938Z,8.48
2022-10-24T20:14:17.545Z,7.87
2022-10-24T20:16:51.866Z,8.05
2022-10-24T20:19:25.069Z,9.03
2022-10-24T20:22:01.619Z,8.45
2022-10-24T20:24:34.069Z,8.70
2022-10-24T20:27:07.510Z,6.08
2022-10-24T20:29:41.319Z,7.60
2022-10-24T20:32:14.676Z,8.93
2022-10-24T20:34:47.900Z,7.22
2022-10-24T20:37:21.553Z,7.45
2022-10-24T20:39:55.721Z,8.98
2022-10-24T20:42:29.112Z,6.05
2022-10-24T20:45:02.215Z,7.80
2022-10-24T20:47:36.846Z,7.37
2022-10-24T20:50:11.523Z,8.48
2022-10-24T20:52:45.343Z,7.92
2022-10-24T20:55:31.673Z,7.35
2022-10-24T20:57:55.217Z,7.70
2022-10-24T21:00:28.609Z,8.70
2022-10-24T21:03:01.789Z,7.20
2022-10-24T21:05:36.839Z,6.85
2022-10-24T21:08:10.006Z,9.73
2022-10-24T21:10:43.102Z,8.50
2022-10-24T21:13:16.288Z,7.97
2022-10-24T21:15:49.715Z,6.97
2022-10-24T21:18:23.189Z,8.13
2022-10-24T21:20:56.266Z,11.05
2022-10-24T21:23:29.762Z,15.98
2022-10-24T21:26:08.072Z,17.07
2022-10-24T21:28:42.001Z,16.67
2022-10-24T21:31:16.907Z,12.47
2022-10-24T21:33:50.811Z,10.78
2022-10-24T21:36:25.531Z,12.05
2022-10-24T21:39:00.333Z,11.95
2022-10-24T21:41:34.578Z,15.53
2022-10-24T21:44:07.990Z,15.53
2022-10-24T21:46:41.750Z,13.00
2022-10-24T21:49:15.301Z,18.77
2022-10-24T21:51:49.715Z,10.98
2022-10-24T21:54:24.934Z,17.17
2022-10-24T21:56:58.355Z,11.10
2022-10-24T21:59:32.121Z,12.68
2022-10-24T22:02:06.410Z,14.68
2022-10-24T22:04:39.960Z,12.75
2022-10-24T22:07:13.564Z,13.38
2022-10-24T22:09:47.025Z,11.93
2022-10-24T22:12:20.711Z,15.43
2022-10-24T22:14:53.748Z,10.53
2022-10-24T22:17:27.107Z,11.80
2022-10-24T22:20:00.577Z,12.10
2022-10-24T22:22:34.150Z,8.68
2022-10-24T22:25:09.543Z,14.73
2022-10-24T22:27:43.071Z,8.35
2022-10-24T22:30:17.199Z,9.13
2022-10-24T22:32:51.689Z,10.05
2022-10-24T22:35:26.354Z,16.45
2022-10-24T22:38:00.849Z,37.28
2022-10-24T22:40:35.531Z,38.15
2022-10-24T22:43:10.081Z,30.17
2022-10-24T22:45:46.506Z,22.13
2022-10-24T22:48:22.792Z,21.80
2022-10-24T22:50:58.324Z,12.23
2022-10-24T22:53:33.193Z,10.00
2022-10-24T22:56:19.536Z,10.88
2022-10-24T22:58:54.479Z,11.05
2022-10-24T23:01:38.203Z,11.05
2022-10-24T23:04:19.477Z,10.95
2022-10-24T23:06:55.640Z,11.10
2022-10-24T23:09:29.086Z,9.10
2022-10-24T23:12:03.540Z,15.00
2022-10-24T23:14:38.115Z,12.80
2022-10-24T23:17:12.916Z,10.50
2022-10-24T23:19:48.271Z,7.90
2022-10-24T23:22:25.095Z,8.85
2022-10-24T23:25:01.089Z,12.80
2022-10-24T23:27:39.432Z,9.18
2022-10-24T23:30:18.299Z,9.23
2022-10-24T23:32:53.246Z,14.07
2022-10-24T23:35:28.087Z,15.90
2022-10-24T23:38:02.547Z,14.38
2022-10-24T23:40:37.520Z,11.43
2022-10-24T23:43:15.293Z,13.88
2022-10-24T23:45:51.835Z,7.30
2022-10-24T23:48:29.159Z,13.18
2022-10-24T23:51:06.542Z,11.93
2022-10-24T23:53:50.413Z,10.65
2022-10-24T23:56:26.347Z,13.10
2022-10-24T23:58:59.704Z,15.28
